Time;durP1;ratioP1;P1;durP2;ratioP2;P2;SDS_P1;SDS_P2;PMS_P1;PMS_P2;Temp;Humidity;BMP_temperature;BMP_pressure;BME280_temperature;BME280_humidity;BME280_pressure;Samples;Min_cycle;Max_cycle;Signal;HPM_P1;HPM_P2
2021/01/11 00:01:08;;;;;;;18.17;14.52;;;;;;;-3.17;70.33;100734.28;10136690;29;20459;-66
2021/01/11 00:06:09;;;;;;;15.55;13.57;;;;;;;-3.15;70.53;100736.91;10136491;29;20519;-65
2021/01/11 00:11:11;;;;;;;15.88;14.25;;;;;;;-3.34;70.97;100730.25;10137034;29;20395;-66
2021/01/11 00:16:13;;;;;;;15.77;14.13;;;;;;;-3.10;69.64;100730.22;10144490;29;20468;-66
2021/01/11 00:21:16;;;;;;;15.18;13.70;;;;;;;-3.24;70.59;100732.31;10143904;29;20052;-65
2021/01/11 00:26:17;;;;;;;14.05;12.65;;;;;;;-3.27;70.06;100727.09;10143956;29;20574;-65
2021/01/11 00:31:23;;;;;;;16.13;14.43;;;;;;;-3.47;70.49;100715.22;10145328;29;20136;-65
2021/01/11 00:36:25;;;;;;;11.35;10.15;;;;;;;-3.86;71.41;100716.38;10143873;29;20131;-65
2021/01/11 00:41:26;;;;;;;15.48;13.95;;;;;;;-3.92;71.78;100718.72;10142656;29;20131;-65
2021/01/11 00:46:29;;;;;;;14.75;13.25;;;;;;;-3.94;71.65;100719.47;10142694;29;20052;-66
2021/01/11 00:51:31;;;;;;;14.80;11.80;;;;;;;-3.94;71.91;100732.31;10142564;29;20051;-66
2021/01/11 00:56:38;;;;;;;14.55;11.73;;;;;;;-3.84;71.48;100737.00;10141599;29;20053;-65
2021/01/11 01:01:57;;;;;;;15.10;13.02;;;;;;;-3.61;70.68;100741.28;10142848;29;20048;-66
2021/01/11 01:07:02;;;;;;;15.07;13.57;;;;;;;-3.82;70.96;100743.06;10141522;29;20048;-65
2021/01/11 01:12:03;;;;;;;16.10;14.07;;;;;;;-3.81;71.73;100731.97;10143165;29;20403;-66
2021/01/11 01:17:05;;;;;;;15.02;13.43;;;;;;;-4.09;71.62;100736.06;10142373;29;20056;-66
2021/01/11 01:22:06;;;;;;;14.88;13.48;;;;;;;-4.15;71.86;100729.84;10140661;29;20087;-65
2021/01/11 01:27:07;;;;;;;15.38;13.88;;;;;;;-4.25;72.05;100733.75;10140282;29;20459;-64
2021/01/11 01:32:08;;;;;;;15.02;12.75;;;;;;;-4.29;72.36;100729.31;10141485;29;20079;-65
2021/01/11 01:37:10;;;;;;;16.20;14.20;;;;;;;-4.33;72.72;100735.13;10142458;29;20491;-65
2021/01/11 01:42:11;;;;;;;19.02;13.18;;;;;;;-4.24;72.33;100739.75;10141697;29;20352;-66
2021/01/11 01:47:13;;;;;;;19.45;14.73;;;;;;;-4.22;72.24;100741.53;10142062;29;20459;-66
2021/01/11 01:52:14;;;;;;;16.50;14.30;;;;;;;-4.37;72.66;100743.53;10141251;29;20088;-65
2021/01/11 01:57:17;;;;;;;16.05;14.32;;;;;;;-4.32;73.01;100742.00;10140240;29;20054;-64
2021/01/11 02:02:19;;;;;;;14.25;12.85;;;;;;;-4.28;72.75;100749.03;10139968;29;20037;-66
2021/01/11 02:07:40;;;;;;;14.70;13.15;;;;;;;-4.34;73.00;100733.34;10141469;29;20052;-66
2021/01/11 02:13:13;;;;;;;14.60;13.10;;;;;;;-4.29;73.19;100739.56;10141984;29;20045;-65
2021/01/11 02:18:21;;;;;;;15.13;13.55;;;;;;;-4.51;73.50;100739.53;10139615;29;20068;-66
2021/01/11 02:23:44;;;;;;;15.77;13.82;;;;;;;-3.96;72.66;100716.88;10141099;29;20040;-65
2021/01/11 02:29:01;;;;;;;14.52;12.93;;;;;;;-4.02;71.90;100706.38;10141289;29;20053;-64
2021/01/11 02:34:03;;;;;;;14.38;12.32;;;;;;;-4.00;71.89;100703.84;10140492;29;20040;-65
2021/01/11 02:39:04;;;;;;;11.48;10.38;;;;;;;-3.77;70.24;100692.72;10139640;29;20080;-65
2021/01/11 02:44:06;;;;;;;9.43;8.52;;;;;;;-3.64;69.46;100679.50;10182503;23;20422;-67
2021/01/11 02:49:22;;;;;;;9.40;8.45;;;;;;;-3.89;69.51;100662.34;10180688;29;20104;-69
2021/01/11 02:54:33;;;;;;;9.30;8.35;;;;;;;-3.97;69.99;100673.16;10180975;29;20100;-70
2021/01/11 02:59:52;;;;;;;8.73;7.90;;;;;;;-4.08;70.10;100683.88;10180604;29;20047;-69
2021/01/11 03:04:54;;;;;;;9.98;8.57;;;;;;;-4.23;70.36;100688.47;10181242;29;20040;-70
2021/01/11 03:09:55;;;;;;;8.95;8.05;;;;;;;-4.39;70.68;100683.53;10180659;29;20044;-71
2021/01/11 03:14:57;;;;;;;9.00;8.20;;;;;;;-4.38;71.05;100677.63;10180181;29;20051;-69
2021/01/11 03:19:58;;;;;;;9.95;8.45;;;;;;;-4.16;70.61;100681.84;10179059;29;20056;-69
2021/01/11 03:24:59;;;;;;;10.50;9.40;;;;;;;-4.38;70.87;100683.63;10178545;29;20086;-70
2021/01/11 03:30:00;;;;;;;11.73;10.63;;;;;;;-4.67;72.15;100673.91;10179343;29;20584;-69
2021/01/11 03:35:02;;;;;;;12.95;11.65;;;;;;;-4.67;72.27;100674.78;10178428;29;20115;-69
2021/01/11 03:40:05;;;;;;;12.93;11.63;;;;;;;-4.80;72.90;100667.41;10177355;29;20055;-73
2021/01/11 03:45:10;;;;;;;13.65;12.20;;;;;;;-4.74;72.52;100661.66;10177549;29;20072;-72
2021/01/11 03:50:12;;;;;;;13.10;11.80;;;;;;;-4.88;72.88;100661.09;10177967;29;20078;-71
2021/01/11 03:55:14;;;;;;;14.85;12.23;;;;;;;-4.61;72.53;100654.50;10177852;29;20064;-71
2021/01/11 04:00:15;;;;;;;13.88;12.48;;;;;;;-4.72;72.15;100645.50;10177320;29;20533;-71
2021/01/11 04:05:16;;;;;;;13.73;12.30;;;;;;;-4.52;72.43;100643.72;10178815;29;20052;-72
2021/01/11 04:10:18;;;;;;;16.50;12.60;;;;;;;-4.62;71.82;100645.03;10179809;29;20128;-72
2021/01/11 04:15:19;;;;;;;15.13;13.48;;;;;;;-4.73;72.38;100645.47;10178242;29;20059;-73
2021/01/11 04:20:20;;;;;;;14.23;12.80;;;;;;;-4.67;72.61;100640.56;10179595;29;20072;-72
2021/01/11 04:25:23;;;;;;;12.65;11.35;;;;;;;-4.87;72.83;100637.19;10177817;29;20402;-72
2021/01/11 04:30:27;;;;;;;12.50;11.20;;;;;;;-4.57;71.85;100637.53;10178461;29;20048;-72
2021/01/11 04:35:29;;;;;;;13.27;11.95;;;;;;;-4.50;71.80;100633.53;10177692;29;20132;-72
2021/01/11 04:40:30;;;;;;;12.43;10.63;;;;;;;-4.81;71.88;100629.75;10178268;29;20059;-72
2021/01/11 04:45:32;;;;;;;12.85;10.93;;;;;;;-4.89;72.19;100623.44;10178196;29;20474;-72
2021/01/11 04:50:35;;;;;;;13.35;12.05;;;;;;;-4.76;72.44;100627.38;10178226;29;20442;-73
2021/01/11 04:55:38;;;;;;;11.95;10.75;;;;;;;-4.90;72.31;100624.28;10179762;29;20052;-73
2021/01/11 05:00:41;;;;;;;11.43;10.23;;;;;;;-5.09;72.89;100617.50;10183120;29;20056;-72
2021/01/11 05:05:46;;;;;;;11.57;10.20;;;;;;;-5.14;72.98;100609.63;10184223;29;20055;-73
2021/01/11 05:10:47;;;;;;;11.73;10.07;;;;;;;-4.97;72.90;100607.75;10183448;29;20044;-73
2021/01/11 05:15:48;;;;;;;11.00;9.90;;;;;;;-4.79;72.62;100610.16;10185737;29;20135;-73
2021/01/11 05:20:49;;;;;;;10.93;9.82;;;;;;;-4.94;72.13;100602.75;10185591;29;20488;-74
2021/01/11 05:25:51;;;;;;;9.43;8.45;;;;;;;-4.79;72.47;100599.91;10183022;29;20049;-73
2021/01/11 05:30:52;;;;;;;11.07;9.98;;;;;;;-4.93;72.54;100604.50;10183381;29;20104;-73
2021/01/11 05:36:10;;;;;;;10.02;9.00;;;;;;;-4.90;72.31;100603.75;10185213;29;20036;-73
2021/01/11 05:41:21;;;;;;;10.55;9.45;;;;;;;-4.93;72.56;100604.50;10186189;29;20058;-74
2021/01/11 05:46:27;;;;;;;9.53;8.53;;;;;;;-5.02;72.70;100599.00;10191349;29;20083;-72
2021/01/11 05:51:31;;;;;;;9.47;8.57;;;;;;;-4.56;72.09;100593.09;10191304;29;20281;-72
2021/01/11 05:56:56;;;;;;;9.73;8.77;;;;;;;-4.15;70.61;100588.63;10192705;29;20118;-72
2021/01/11 06:02:00;;;;;;;8.65;7.85;;;;;;;-4.09;69.87;100591.41;10189755;29;20044;-72
2021/01/11 06:07:02;;;;;;;8.82;7.93;;;;;;;-3.97;69.42;100591.84;10193661;29;20048;-73
2021/01/11 06:12:07;;;;;;;8.02;7.22;;;;;;;-3.91;69.31;100589.50;10190426;29;20541;-72
2021/01/11 06:17:08;;;;;;;8.45;7.07;;;;;;;-3.57;68.21;100591.53;10189223;29;20119;-72
2021/01/11 06:22:09;;;;;;;7.65;6.70;;;;;;;-3.49;68.19;100604.66;10187755;29;20091;-72
2021/01/11 06:27:17;;;;;;;7.50;6.82;;;;;;;-3.40;67.07;100588.69;10186935;29;20051;-73
2021/01/11 06:32:23;;;;;;;7.80;7.10;;;;;;;-3.39;67.31;100596.44;10184417;29;20128;-70
2021/01/11 06:37:25;;;;;;;8.15;7.35;;;;;;;-3.59;67.99;100590.59;10185741;29;20040;-71
2021/01/11 06:42:31;;;;;;;9.20;8.15;;;;;;;-3.47;67.88;100599.56;10182894;29;20478;-72
2021/01/11 06:47:38;;;;;;;8.90;7.97;;;;;;;-3.43;67.84;100594.56;10181662;29;20096;-71
2021/01/11 06:52:40;;;;;;;7.75;6.95;;;;;;;-3.20;67.30;100587.59;10182820;29;20040;-71
2021/01/11 06:57:46;;;;;;;9.07;8.27;;;;;;;-3.29;67.30;100589.88;10181498;29;20072;-71
2021/01/11 07:02:48;;;;;;;8.30;7.60;;;;;;;-3.23;67.34;100587.53;10179867;29;20075;-71
2021/01/11 07:08:20;;;;;;;8.70;7.80;;;;;;;-2.95;66.61;100594.41;10181305;29;20056;-72
2021/01/11 07:13:25;;;;;;;8.07;7.28;;;;;;;-3.02;66.86;100589.03;10181242;29;20045;-70
2021/01/11 07:18:42;;;;;;;8.52;7.72;;;;;;;-3.06;67.07;100595.75;10182195;29;20048;-71
2021/01/11 07:23:55;;;;;;;7.93;7.22;;;;;;;-2.84;66.44;100592.16;10180197;29;20048;-72
2021/01/11 07:29:01;;;;;;;7.63;6.93;;;;;;;-2.66;65.92;100594.44;10179152;29;20080;-71
2021/01/11 07:34:24;;;;;;;7.20;6.50;;;;;;;-2.70;66.44;100584.88;10179311;29;20040;-72
2021/01/11 07:39:27;;;;;;;7.65;6.95;;;;;;;-2.66;66.10;100585.00;10178067;29;20079;-69
2021/01/11 07:44:34;;;;;;;7.97;7.13;;;;;;;-2.63;66.17;100585.13;10178472;29;20044;-69
2021/01/11 07:50:00;;;;;;;10.32;7.63;;;;;;;-2.40;65.34;100588.38;10179863;29;20048;-69
2021/01/11 07:55:04;;;;;;;8.07;7.35;;;;;;;-2.37;65.63;100582.44;10179309;29;20048;-68
2021/01/11 08:00:11;;;;;;;8.45;7.70;;;;;;;-2.35;64.70;100584.22;10179319;29;20557;-68
2021/01/11 08:05:23;;;;;;;8.38;7.68;;;;;;;-2.35;65.62;100581.63;10180091;29;20044;-69
2021/01/11 08:10:25;;;;;;;8.10;7.30;;;;;;;-2.23;65.09;100580.25;10180044;29;20048;-69
2021/01/11 08:15:27;;;;;;;8.38;7.63;;;;;;;-2.23;65.05;100582.84;10178910;29;20442;-68
2021/01/11 08:20:28;;;;;;;8.25;7.47;;;;;;;-2.17;64.87;100585.56;10178713;29;20108;-70
2021/01/11 08:25:31;;;;;;;7.10;6.40;;;;;;;-1.91;63.76;100583.72;10177629;29;20044;-69
2021/01/11 08:30:33;;;;;;;7.85;7.15;;;;;;;-1.85;64.34;100576.19;10179556;29;20087;-69
2021/01/11 08:35:35;;;;;;;6.88;6.28;;;;;;;-2.11;65.22;100581.47;10183395;29;20044;-69
2021/01/11 08:45:56;;;;;;;6.47;5.88;;;;;;;-1.63;63.30;100578.50;10141843;29;20053;-65
2021/01/11 08:50:58;;;;;;;6.55;6.03;;;;;;;-1.44;62.57;100576.38;10142440;29;20171;-65
2021/01/11 08:56:06;;;;;;;7.07;6.38;;;;;;;-1.35;62.26;100567.16;10140843;29;20051;-65
2021/01/11 09:01:12;;;;;;;6.28;5.68;;;;;;;-1.28;62.31;100565.63;10142094;29;20495;-65
2021/01/11 09:06:40;;;;;;;7.00;6.30;;;;;;;-1.23;62.80;100566.59;10142490;29;20074;-65
2021/01/11 09:11:44;;;;;;;6.18;5.60;;;;;;;-1.05;61.33;100566.16;10141896;29;20123;-65
2021/01/11 09:16:47;;;;;;;5.82;5.28;;;;;;;-1.03;61.68;100573.09;10141997;29;20048;-65
2021/01/11 09:22:18;;;;;;;6.03;5.53;;;;;;;-0.94;60.89;100572.44;10141873;29;20078;-65
2021/01/11 09:27:19;;;;;;;6.32;5.72;;;;;;;-0.87;61.16;100576.91;10140153;29;20569;-66
2021/01/11 09:32:21;;;;;;;7.03;6.43;;;;;;;-0.76;61.02;100575.44;10141143;29;20520;-65
2021/01/11 09:37:22;;;;;;;5.82;5.32;;;;;;;-0.60;60.46;100579.25;10141920;29;20044;-66
2021/01/11 09:42:23;;;;;;;6.47;5.88;;;;;;;-0.56;60.42;100568.16;10140518;29;20491;-66
2021/01/11 09:47:25;;;;;;;5.97;5.45;;;;;;;-0.79;62.02;100574.53;10140584;29;20455;-66
2021/01/11 09:52:28;;;;;;;5.93;5.43;;;;;;;-0.42;60.40;100586.50;10139975;29;20066;-65
2021/01/11 09:57:37;;;;;;;6.90;6.30;;;;;;;-0.51;61.16;100584.59;10140574;29;20519;-65
2021/01/11 10:02:39;;;;;;;6.63;6.03;;;;;;;-0.23;60.26;100587.75;10140634;29;20077;-66
2021/01/11 10:07:40;;;;;;;5.63;5.13;;;;;;;-0.22;60.29;100586.94;10139698;29;20048;-66
2021/01/11 10:12:41;;;;;;;6.00;5.50;;;;;;;-0.17;60.49;100585.34;10139507;29;20068;-66
2021/01/11 10:17:43;;;;;;;5.70;5.20;;;;;;;0.01;59.80;100579.66;10139852;29;20049;-65
2021/01/11 10:22:45;;;;;;;6.00;5.50;;;;;;;-0.06;59.75;100582.94;10142102;29;20041;-65
2021/01/11 10:27:46;;;;;;;5.40;5.00;;;;;;;0.14;59.41;100567.84;10143679;29;20081;-65
2021/01/11 10:32:48;;;;;;;5.50;4.85;;;;;;;0.28;59.54;100568.09;10145005;29;20044;-66
2021/01/11 10:37:49;;;;;;;5.75;5.25;;;;;;;0.27;59.89;100572.41;10142145;29;20116;-66
2021/01/11 10:42:50;;;;;;;4.82;4.43;;;;;;;0.90;57.67;100558.81;10140274;29;20104;-66
2021/01/11 10:47:53;;;;;;;4.70;4.30;;;;;;;0.96;56.99;100552.84;10137476;29;20049;-66
2021/01/11 10:52:54;;;;;;;4.45;3.95;;;;;;;0.98;56.76;100551.19;10138334;29;20052;-66
2021/01/11 10:57:55;;;;;;;4.47;4.03;;;;;;;1.00;57.12;100552.06;10139025;29;20172;-66
2021/01/11 11:02:56;;;;;;;5.35;3.63;;;;;;;1.12;55.94;100534.13;10138541;29;20049;-66
2021/01/11 11:07:57;;;;;;;5.30;4.20;;;;;;;1.04;57.19;100533.13;10139559;29;20052;-65
2021/01/11 11:12:59;;;;;;;5.25;4.85;;;;;;;0.96;58.05;100516.63;10142389;29;20040;-64
2021/01/11 11:18:00;;;;;;;4.72;4.22;;;;;;;1.44;56.21;100512.97;10140529;29;20055;-65
2021/01/11 11:23:02;;;;;;;5.10;4.60;;;;;;;3.22;52.53;100492.09;10139780;29;20140;-65
2021/01/11 11:28:03;;;;;;;4.88;4.18;;;;;;;4.91;48.85;100483.75;10139365;29;20040;-66
2021/01/11 11:33:05;;;;;;;4.10;3.50;;;;;;;2.90;51.98;100485.00;10139949;29;20048;-65
2021/01/11 11:38:06;;;;;;;4.50;4.10;;;;;;;2.81;52.03;100473.69;10137883;29;20053;-64
2021/01/11 11:43:08;;;;;;;4.38;3.97;;;;;;;2.61;52.70;100473.53;10138445;29;20044;-64
2021/01/11 11:48:10;;;;;;;8.73;4.10;;;;;;;2.22;53.07;100465.44;10137927;29;20064;-65
2021/01/11 11:53:12;;;;;;;5.00;4.60;;;;;;;2.01;54.16;100468.69;10135527;29;20080;-64
2021/01/11 11:58:13;;;;;;;4.50;4.15;;;;;;;1.75;53.97;100465.84;10136227;29;20111;-64
2021/01/11 12:03:15;;;;;;;4.50;4.10;;;;;;;1.58;55.46;100459.59;10135242;29;20481;-64
2021/01/11 12:08:16;;;;;;;4.68;4.28;;;;;;;1.41;55.18;100449.03;10134815;29;20111;-64
2021/01/11 12:13:17;;;;;;;5.00;4.60;;;;;;;1.57;54.03;100423.31;10135838;29;20048;-65
2021/01/11 12:18:19;;;;;;;5.25;4.65;;;;;;;1.28;56.15;100410.88;10135847;29;20104;-65
2021/01/11 12:23:20;;;;;;;4.50;4.10;;;;;;;1.35;55.71;100399.75;10135152;29;20073;-65
2021/01/11 12:28:21;;;;;;;6.85;4.70;;;;;;;1.33;55.90;100388.53;10134847;29;20084;-65
2021/01/11 12:33:22;;;;;;;3.67;3.38;;;;;;;1.21;54.72;100398.72;10135426;29;20502;-65
2021/01/11 12:38:24;;;;;;;5.45;4.95;;;;;;;1.19;55.68;100393.50;10134420;29;20045;-65
2021/01/11 12:43:25;;;;;;;4.55;4.13;;;;;;;1.22;55.34;100392.69;10135110;29;20045;-65
2021/01/11 12:48:44;;;;;;;4.95;4.47;;;;;;;1.24;55.57;100368.56;10137221;29;20052;-65
2021/01/11 12:53:46;;;;;;;4.38;4.07;;;;;;;1.26;55.22;100364.25;10136323;29;20229;-64
2021/01/11 12:58:53;;;;;;;4.07;3.75;;;;;;;1.37;54.96;100356.59;10134952;29;20049;-64
2021/01/11 13:03:56;;;;;;;6.38;4.07;;;;;;;1.40;55.38;100359.22;10134821;29;20100;-64
2021/01/11 13:08:58;;;;;;;4.70;4.30;;;;;;;1.52;54.84;100342.94;10134505;29;20100;-64
2021/01/11 13:14:02;;;;;;;3.67;3.38;;;;;;;1.21;55.83;100342.63;10135554;29;20073;-63
2021/01/11 13:19:06;;;;;;;10.43;4.00;;;;;;;1.20;55.49;100335.72;10135030;29;20052;-64
2021/01/11 13:24:09;;;;;;;4.00;3.70;;;;;;;1.20;54.94;100327.94;10141290;29;20041;-64
2021/01/11 13:29:12;;;;;;;5.72;4.15;;;;;;;1.08;54.95;100308.81;10141396;29;20077;-66
2021/01/11 13:34:15;;;;;;;5.00;4.57;;;;;;;1.11;54.74;100309.72;10141461;29;20128;-64
2021/01/11 13:39:17;;;;;;;5.72;5.15;;;;;;;1.19;55.24;100296.84;10141032;29;20080;-64
2021/01/11 13:44:18;;;;;;;6.63;6.03;;;;;;;1.23;55.12;100299.47;10140477;29;20076;-63
2021/01/11 13:49:23;;;;;;;5.88;5.35;;;;;;;1.20;55.39;100291.69;10140955;29;20116;-64
2021/01/11 13:54:25;;;;;;;6.63;5.95;;;;;;;1.18;55.97;100295.09;10141594;29;20073;-65
2021/01/11 13:59:29;;;;;;;6.75;6.15;;;;;;;1.31;55.06;100283.16;10141087;29;20479;-63
2021/01/11 14:04:31;;;;;;;6.88;6.28;;;;;;;1.27;56.09;100274.47;10140042;29;20167;-65
2021/01/11 14:09:32;;;;;;;6.30;5.70;;;;;;;1.18;56.61;100275.25;10138564;29;20092;-64
2021/01/11 14:14:33;;;;;;;6.60;6.00;;;;;;;1.37;55.76;100258.16;10141260;29;20044;-64
2021/01/11 14:19:34;;;;;;;8.13;5.45;;;;;;;1.35;55.38;100265.06;10138574;29;20116;-64
2021/01/11 14:24:36;;;;;;;6.82;6.22;;;;;;;1.10;57.32;100263.09;10138263;29;20041;-65
2021/01/11 14:29:37;;;;;;;5.88;5.30;;;;;;;1.31;55.74;100268.47;10138960;29;20080;-63
2021/01/11 14:34:39;;;;;;;6.13;5.63;;;;;;;1.26;56.49;100260.66;10138404;29;20459;-65
2021/01/11 14:39:40;;;;;;;6.60;5.90;;;;;;;1.30;55.29;100264.16;10138736;29;20104;-63
2021/01/11 14:44:41;;;;;;;5.45;4.95;;;;;;;1.35;55.99;100261.63;10156798;23;20092;-67
2021/01/11 14:49:43;;;;;;;6.65;4.88;;;;;;;1.17;56.02;100263.16;10126684;29;20557;-67
2021/01/11 14:54:44;;;;;;;6.07;5.10;;;;;;;1.33;55.28;100252.94;10142313;29;20048;-67
2021/01/11 14:59:46;;;;;;;5.28;4.78;;;;;;;1.45;55.13;100260.84;10141945;29;20055;-68
2021/01/11 15:04:47;;;;;;;4.78;4.32;;;;;;;1.39;55.39;100259.06;10143162;29;20067;-67
2021/01/11 15:09:54;;;;;;;;;;;;;;;1.22;55.90;100271.84;10143533;29;20404;-67
2021/01/11 15:14:56;;;;;;;5.47;4.97;;;;;;;1.30;56.30;100258.97;10142731;29;19923;-68
2021/01/11 15:19:57;;;;;;;5.38;4.88;;;;;;;1.34;56.03;100254.69;10141365;29;20152;-68
2021/01/11 15:24:59;;;;;;;6.32;5.72;;;;;;;1.33;56.10;100250.34;10144109;29;20112;-67
2021/01/11 15:30:00;;;;;;;7.00;5.38;;;;;;;1.38;56.31;100249.56;10144048;29;20096;-67
2021/01/11 15:35:04;;;;;;;7.07;5.65;;;;;;;1.18;56.46;100249.38;10143767;29;20055;-67
2021/01/11 15:40:07;;;;;;;5.72;4.80;;;;;;;1.16;57.03;100237.28;10145736;29;20511;-68
2021/01/11 15:45:14;;;;;;;6.78;6.22;;;;;;;0.88;58.15;100238.69;10143439;29;20051;-68
2021/01/11 15:50:17;;;;;;;6.25;5.65;;;;;;;0.85;58.71;100243.88;10142078;29;20045;-67
2021/01/11 15:55:19;;;;;;;5.90;5.22;;;;;;;0.82;59.03;100239.50;10142443;29;20049;-67
2021/01/11 16:00:21;;;;;;;6.10;5.60;;;;;;;0.72;58.68;100237.69;10142388;29;20112;-67
2021/01/11 16:05:23;;;;;;;5.25;4.75;;;;;;;0.93;58.30;100232.75;10144776;29;20053;-67
2021/01/11 16:10:25;;;;;;;5.22;4.72;;;;;;;0.91;58.27;100215.44;10145463;29;20055;-66
2021/01/11 16:15:27;;;;;;;5.85;5.35;;;;;;;0.90;58.46;100203.38;10144921;29;20045;-67
2021/01/11 16:20:28;;;;;;;6.13;5.63;;;;;;;1.19;57.55;100198.44;10145201;29;20041;-68
2021/01/11 16:25:30;;;;;;;5.85;5.25;;;;;;;1.11;57.48;100194.94;10149873;29;20037;-68
2021/01/11 16:30:32;;;;;;;6.40;5.80;;;;;;;0.74;58.40;100195.44;10142533;29;20055;-67
2021/01/11 16:35:34;;;;;;;5.07;4.68;;;;;;;0.85;58.58;100181.75;10138272;29;20052;-68
2021/01/11 16:40:36;;;;;;;8.68;5.93;;;;;;;0.70;59.31;100190.22;10137613;29;20056;-68
2021/01/11 16:45:37;;;;;;;7.97;7.18;;;;;;;0.82;58.88;100181.72;10138379;29;20047;-67
2021/01/11 16:50:38;;;;;;;10.02;9.02;;;;;;;0.68;60.22;100171.22;10141693;29;20449;-68
2021/01/11 16:55:40;;;;;;;12.77;11.52;;;;;;;0.99;59.23;100155.13;10147636;29;20558;-67
2021/01/11 17:00:42;;;;;;;11.00;10.00;;;;;;;0.89;59.63;100150.75;10149816;29;20041;-67
2021/01/11 17:05:44;;;;;;;9.85;8.85;;;;;;;0.89;59.04;100150.75;10151362;29;20049;-67
2021/01/11 17:10:46;;;;;;;10.05;9.07;;;;;;;0.55;60.44;100156.44;10149488;29;20052;-68
2021/01/11 17:15:47;;;;;;;9.43;8.52;;;;;;;0.25;60.97;100158.69;10150033;29;20062;-67
2021/01/11 17:20:49;;;;;;;9.02;8.23;;;;;;;0.25;61.14;100161.25;10153410;29;20136;-68
2021/01/11 17:25:51;;;;;;;11.00;10.00;;;;;;;0.18;61.72;100158.59;10154414;29;20040;-67
2021/01/11 17:30:54;;;;;;;10.48;9.57;;;;;;;0.09;62.30;100154.19;10150293;29;20044;-68
2021/01/11 17:35:56;;;;;;;9.68;8.70;;;;;;;0.19;61.87;100156.03;10147744;29;20055;-67
2021/01/11 17:40:57;;;;;;;6.38;5.80;;;;;;;0.37;59.84;100151.94;10151893;29;20068;-68
2021/01/11 17:45:59;;;;;;;7.72;6.93;;;;;;;0.22;60.66;100163.84;10149244;29;20083;-67
2021/01/11 17:51:02;;;;;;;13.73;12.25;;;;;;;0.42;61.02;100147.66;10151314;29;20044;-68
2021/01/11 17:56:05;;;;;;;7.25;6.65;;;;;;;0.47;59.95;100131.34;10149283;29;20411;-68
2021/01/11 18:01:06;;;;;;;6.13;5.60;;;;;;;0.54;58.48;100123.66;10146091;29;20069;-69
2021/01/11 18:06:09;;;;;;;5.75;5.25;;;;;;;0.45;59.33;100125.31;10145882;29;20044;-67
2021/01/11 18:11:11;;;;;;;6.10;5.60;;;;;;;0.32;59.11;100123.44;10145302;29;20045;-69
2021/01/11 18:16:12;;;;;;;6.18;5.57;;;;;;;0.51;58.07;100116.72;10144070;29;20040;-68
2021/01/11 18:21:14;;;;;;;6.55;5.85;;;;;;;0.50;58.26;100120.16;10144617;29;20068;-68
2021/01/11 18:26:15;;;;;;;6.50;5.95;;;;;;;0.47;58.18;100117.53;10144574;29;20045;-69
2021/01/11 18:31:22;;;;;;;6.13;5.53;;;;;;;0.47;58.43;100118.41;10144758;29;20048;-69
2021/01/11 18:36:35;;;;;;;6.60;6.00;;;;;;;0.54;58.26;100123.66;10143789;29;20045;-68
2021/01/11 18:41:40;;;;;;;6.63;5.70;;;;;;;0.65;57.88;100122.91;10143483;29;20063;-69
2021/01/11 18:46:42;;;;;;;6.63;6.03;;;;;;;0.40;58.59;100113.16;10143199;29;20041;-67
2021/01/11 18:51:43;;;;;;;7.97;6.30;;;;;;;0.15;59.10;100112.03;10142974;29;20052;-69
2021/01/11 18:56:44;;;;;;;6.38;5.88;;;;;;;0.25;59.04;100095.75;10143617;29;20435;-67
2021/01/11 19:01:46;;;;;;;7.20;6.50;;;;;;;0.05;60.12;100086.94;10142245;29;20053;-69
2021/01/11 19:06:47;;;;;;;7.00;6.38;;;;;;;0.22;59.32;100094.03;10143553;29;20044;-67
2021/01/11 19:11:49;;;;;;;7.00;6.40;;;;;;;0.18;58.72;100099.16;10142542;29;20048;-69
2021/01/11 19:16:50;;;;;;;6.00;5.40;;;;;;;0.26;57.68;100094.91;10142497;29;20052;-69
2021/01/11 19:21:52;;;;;;;6.05;5.47;;;;;;;0.31;58.05;100095.84;10140487;29;20486;-69
2021/01/11 19:26:53;;;;;;;6.65;6.05;;;;;;;0.18;57.86;100086.22;10140746;29;20040;-69
2021/01/11 19:31:55;;;;;;;6.72;6.07;;;;;;;0.37;57.43;100077.81;10140696;29;20048;-69
2021/01/11 19:36:57;;;;;;;6.38;5.80;;;;;;;0.46;57.10;100084.78;10140667;29;20051;-68
2021/01/11 19:41:58;;;;;;;6.25;5.65;;;;;;;0.41;57.56;100078.72;10139916;29;20064;-68
2021/01/11 19:46:59;;;;;;;5.70;5.20;;;;;;;0.40;57.62;100074.38;10140150;29;20517;-68
2021/01/11 19:52:01;;;;;;;5.93;5.43;;;;;;;0.32;57.64;100076.91;10125647;29;20055;-69
2021/01/11 19:57:02;;;;;;;6.60;5.88;;;;;;;0.35;57.79;100069.16;10101168;29;20128;-69
2021/01/11 20:02:04;;;;;;;5.65;5.15;;;;;;;0.79;55.46;100057.47;10101027;29;20408;-68
2021/01/11 20:07:05;;;;;;;4.90;4.50;;;;;;;0.47;56.64;100051.16;10135944;29;20048;-69
2021/01/11 20:12:06;;;;;;;5.75;5.25;;;;;;;0.48;56.82;100046.84;10139839;29;20048;-69
2021/01/11 20:17:10;;;;;;;5.13;4.63;;;;;;;0.88;55.48;100029.94;10140136;29;20041;-68
2021/01/11 20:22:11;;;;;;;6.25;5.78;;;;;;;0.44;57.44;100016.66;10139549;29;20108;-68
2021/01/11 20:27:14;;;;;;;5.72;5.22;;;;;;;0.82;55.62;100005.75;10139097;29;20049;-69
2021/01/11 20:32:15;;;;;;;5.90;5.30;;;;;;;0.53;56.29;99995.16;10146114;29;20053;-69
2021/01/11 20:37:17;;;;;;;5.43;4.93;;;;;;;0.69;55.72;99990.13;10147020;29;20096;-69
2021/01/11 20:47:37;;;;;;;5.88;5.38;;;;;;;0.26;57.71;99986.31;10181091;29;20056;-72
2021/01/11 20:52:38;;;;;;;5.78;5.28;;;;;;;0.21;58.00;99965.59;10183679;29;20123;-68
2021/01/11 20:57:40;;;;;;;6.63;6.03;;;;;;;0.25;57.32;99959.59;10187844;29;20077;-68
2021/01/11 21:02:43;;;;;;;6.53;5.80;;;;;;;0.33;57.63;99943.31;10186002;29;20127;-68
2021/01/11 21:07:44;;;;;;;6.90;6.30;;;;;;;0.13;57.69;99935.38;10183513;29;20052;-67
2021/01/11 21:12:45;;;;;;;7.93;6.97;;;;;;;0.66;56.22;99920.25;10183757;29;20044;-68
2021/01/11 21:17:46;;;;;;;6.07;5.57;;;;;;;0.32;57.71;99914.00;10179958;29;20064;-69
2021/01/11 21:22:48;;;;;;;7.32;6.68;;;;;;;0.39;57.15;99922.66;10180779;29;20100;-67
2021/01/11 21:27:49;;;;;;;6.78;6.18;;;;;;;0.10;58.17;99925.88;10181738;29;20047;-69
2021/01/11 21:32:51;;;;;;;7.80;7.10;;;;;;;0.01;58.95;99906.84;10181828;29;20119;-67
2021/01/11 21:37:52;;;;;;;6.57;5.97;;;;;;;0.25;58.18;99910.50;10181579;29;20052;-67
2021/01/11 21:42:54;;;;;;;5.55;5.05;;;;;;;0.39;57.92;99902.84;10180033;29;20048;-68
2021/01/11 21:47:55;;;;;;;5.55;5.05;;;;;;;0.59;56.55;99891.78;10182797;29;20048;-69
2021/01/11 21:52:56;;;;;;;6.25;5.65;;;;;;;0.77;56.62;99876.34;10181128;29;20048;-68
2021/01/11 21:57:57;;;;;;;6.43;5.65;;;;;;;0.72;56.60;99876.34;10180870;29;20047;-68
2021/01/11 22:02:59;;;;;;;7.53;6.45;;;;;;;0.64;57.30;99879.72;10180556;29;20071;-68
2021/01/11 22:08:00;;;;;;;7.60;6.20;;;;;;;0.93;56.18;99867.81;10179857;29;20105;-68
2021/01/11 22:13:01;;;;;;;5.68;5.18;;;;;;;0.86;56.61;99863.47;10180551;29;20067;-68
2021/01/11 22:18:03;;;;;;;5.15;4.65;;;;;;;0.82;56.96;99860.84;10179373;29;20040;-69
2021/01/11 22:23:04;;;;;;;4.72;4.30;;;;;;;0.84;57.11;99856.53;10179024;29;20115;-68
2021/01/11 22:28:05;;;;;;;5.00;4.50;;;;;;;0.43;58.99;99849.44;10180403;29;20056;-68
2021/01/11 22:33:06;;;;;;;4.72;4.32;;;;;;;0.52;58.47;99848.63;10178641;29;20051;-69
2021/01/11 22:38:08;;;;;;;4.68;4.22;;;;;;;0.52;58.79;99844.31;10177675;29;20055;-68
2021/01/11 22:43:10;;;;;;;4.53;4.15;;;;;;;0.58;58.69;99822.81;10179109;29;20040;-68
2021/01/11 22:48:11;;;;;;;3.92;3.58;;;;;;;0.86;57.79;99824.66;10177708;29;20056;-67
2021/01/11 22:53:13;;;;;;;4.65;4.25;;;;;;;0.98;57.75;99827.28;10177598;29;20055;-68
2021/01/11 22:58:14;;;;;;;4.70;4.30;;;;;;;0.86;58.36;99813.44;10179260;29;20071;-68
2021/01/11 23:03:16;;;;;;;4.18;3.78;;;;;;;1.07;57.69;99816.09;10179069;29;20059;-68
2021/01/11 23:08:17;;;;;;;3.75;3.28;;;;;;;0.98;58.30;99805.72;10177687;29;20048;-68
2021/01/11 23:13:18;;;;;;;4.10;3.50;;;;;;;1.05;58.38;99801.41;10177407;29;20073;-67
2021/01/11 23:18:19;;;;;;;4.25;3.83;;;;;;;0.80;59.16;99803.03;10176935;29;20470;-67
2021/01/11 23:23:21;;;;;;;3.90;3.50;;;;;;;1.03;58.67;99795.38;10176853;29;20131;-68
2021/01/11 23:28:25;;;;;;;3.55;3.25;;;;;;;1.22;57.88;99781.59;10176870;29;20627;-67